createdAt,value
2023-01-29T00:02:34.500Z,2.43
2023-01-29T00:05:27.851Z,2.48
2023-01-29T00:08:13.759Z,2.41
2023-01-29T00:11:06.309Z,2.37
2023-01-29T00:13:52.550Z,2.37
2023-01-29T00:16:37.949Z,2.25
2023-01-29T00:19:23.813Z,2.38
2023-01-29T00:22:09.187Z,2.42
2023-01-29T00:24:54.911Z,2.43
2023-01-29T00:27:40.472Z,2.34
2023-01-29T00:30:26.089Z,2.51
2023-01-29T00:33:13.376Z,2.43
2023-01-29T00:35:58.600Z,2.50
2023-01-29T00:38:44.290Z,2.46
2023-01-29T00:41:50.168Z,2.35
2023-01-29T00:44:53.791Z,2.39
2023-01-29T00:47:39.356Z,2.28
2023-01-29T00:50:25.052Z,2.39
2023-01-29T00:53:10.212Z,2.28
2023-01-29T00:55:55.953Z,2.26
2023-01-29T00:58:41.136Z,2.36
2023-01-29T01:01:45.271Z,2.43
2023-01-29T01:04:31.348Z,2.45
2023-01-29T01:07:17.554Z,2.49
2023-01-29T01:10:20.886Z,2.43
2023-01-29T01:13:07.373Z,2.59
2023-01-29T01:15:52.796Z,2.61
2023-01-29T01:18:38.860Z,2.62
2023-01-29T01:21:24.328Z,2.69
2023-01-29T01:24:09.713Z,2.65
2023-01-29T01:26:55.191Z,2.55
2023-01-29T01:29:40.911Z,2.52
2023-01-29T01:32:26.378Z,2.55
2023-01-29T01:35:12.120Z,2.48
2023-01-29T01:37:57.708Z,2.50
2023-01-29T01:40:46.275Z,2.47
2023-01-29T01:43:51.063Z,2.47
2023-01-29T01:46:37.782Z,2.41
2023-01-29T01:49:24.452Z,2.56
2023-01-29T01:52:12.008Z,2.57
2023-01-29T01:54:58.805Z,2.59
2023-01-29T01:57:47.530Z,2.68
2023-01-29T02:00:33.244Z,2.65
2023-01-29T02:03:40.983Z,2.71
2023-01-29T02:06:45.442Z,2.61
2023-01-29T02:09:42.356Z,2.68
2023-01-29T02:12:31.044Z,2.52
2023-01-29T02:15:16.816Z,2.57
2023-01-29T02:18:02.226Z,2.43
2023-01-29T02:21:14.297Z,2.57
2023-01-29T02:24:46.266Z,2.34
2023-01-29T02:28:03.321Z,2.38
2023-01-29T02:31:00.654Z,2.49
2023-01-29T02:34:16.377Z,2.39
2023-01-29T02:37:10.971Z,2.43
2023-01-29T02:40:07.798Z,2.52
2023-01-29T02:43:02.788Z,2.43
2023-01-29T02:46:02.252Z,2.41
2023-01-29T02:48:57.530Z,2.41
2023-01-29T02:52:02.305Z,2.51
2023-01-29T02:55:11.461Z,2.30
2023-01-29T02:58:04.247Z,2.28
2023-01-29T03:00:52.144Z,2.38
2023-01-29T03:03:42.303Z,2.47
2023-01-29T03:06:32.812Z,2.38
2023-01-29T03:09:33.853Z,2.40
2023-01-29T03:12:33.752Z,2.46
2023-01-29T03:15:27.193Z,2.49
2023-01-29T03:18:27.568Z,2.39
2023-01-29T03:21:39.886Z,2.33
2023-01-29T03:25:07.160Z,2.25
2023-01-29T03:28:15.776Z,2.24
2023-01-29T03:31:24.343Z,2.28
2023-01-29T03:34:18.117Z,2.22
2023-01-29T03:37:15.229Z,2.29
2023-01-29T03:40:03.747Z,2.32
2023-01-29T03:43:04.140Z,2.27
2023-01-29T03:46:29.663Z,2.29
2023-01-29T03:49:26.688Z,2.22
2023-01-29T03:52:30.725Z,2.30
2023-01-29T03:55:41.859Z,2.28
2023-01-29T03:58:47.904Z,2.36
2023-01-29T04:01:53.160Z,2.28
2023-01-29T04:04:41.920Z,2.28
2023-01-29T04:07:33.300Z,2.26
2023-01-29T04:10:22.936Z,2.31
2023-01-29T04:13:11.505Z,2.28
2023-01-29T04:16:00.299Z,2.30
2023-01-29T04:18:47.547Z,2.36
2023-01-29T04:21:34.704Z,2.30
2023-01-29T04:24:20.075Z,2.24
2023-01-29T04:27:23.085Z,2.31
2023-01-29T04:30:29.015Z,2.31
2023-01-29T04:33:26.630Z,2.23
2023-01-29T04:36:33.965Z,2.18
2023-01-29T04:39:29.370Z,2.16
2023-01-29T04:42:41.955Z,2.18
2023-01-29T04:45:45.701Z,2.21
2023-01-29T04:48:47.820Z,2.15
2023-01-29T04:51:43.490Z,2.08
2023-01-29T04:54:42.536Z,2.13
2023-01-29T04:57:37.035Z,2.22
2023-01-29T05:00:32.154Z,2.15
2023-01-29T05:03:17.493Z,2.16
2023-01-29T05:06:04.790Z,1.97
2023-01-29T05:08:51.119Z,2.10
2023-01-29T05:11:37.306Z,1.92
2023-01-29T05:14:25.025Z,1.88
2023-01-29T05:17:16.279Z,1.81
2023-01-29T05:20:01.993Z,1.94
2023-01-29T05:22:48.693Z,1.88
2023-01-29T05:25:35.268Z,2.04
2023-01-29T05:28:20.956Z,2.01
2023-01-29T05:31:06.470Z,2.01
2023-01-29T05:33:51.652Z,1.96
2023-01-29T05:36:36.889Z,2.13
2023-01-29T05:39:22.580Z,2.16
2023-01-29T05:42:08.031Z,2.22
2023-01-29T05:44:53.486Z,2.16
2023-01-29T05:47:39.159Z,2.07
2023-01-29T05:50:25.857Z,2.23
2023-01-29T05:53:11.406Z,2.17
2023-01-29T05:55:59.795Z,2.27
2023-01-29T05:58:45.108Z,2.25
2023-01-29T06:01:30.875Z,2.31
2023-01-29T06:04:16.329Z,2.26
2023-01-29T06:07:03.335Z,2.27
2023-01-29T06:09:49.000Z,2.23
2023-01-29T06:12:34.862Z,2.22
2023-01-29T06:15:20.140Z,2.24
2023-01-29T06:18:05.552Z,2.18
2023-01-29T06:20:50.765Z,2.32
2023-01-29T06:23:36.844Z,2.27
2023-01-29T06:26:22.452Z,2.22
2023-01-29T06:29:07.584Z,2.13
2023-01-29T06:31:53.434Z,2.15
2023-01-29T06:34:38.968Z,2.13
2023-01-29T06:37:24.717Z,2.21
2023-01-29T06:40:10.513Z,2.24
2023-01-29T06:42:56.115Z,2.08
2023-01-29T06:45:57.900Z,2.14
2023-01-29T06:48:43.434Z,2.07
2023-01-29T06:51:28.832Z,2.15
2023-01-29T06:54:14.196Z,2.10
2023-01-29T06:56:59.560Z,2.11
2023-01-29T06:59:45.179Z,2.05
2023-01-29T07:02:30.948Z,2.03
2023-01-29T07:05:16.604Z,1.98
2023-01-29T07:08:02.129Z,2.02
2023-01-29T07:10:47.737Z,1.95
2023-01-29T07:13:34.012Z,2.05
2023-01-29T07:16:19.968Z,2.06
2023-01-29T07:19:05.382Z,2.00
2023-01-29T07:21:50.753Z,2.10
2023-01-29T07:24:36.475Z,2.02
2023-01-29T07:27:22.016Z,1.86
2023-01-29T07:30:08.196Z,1.94
2023-01-29T07:32:53.389Z,2.00
2023-01-29T07:35:40.155Z,2.01
2023-01-29T07:38:25.519Z,2.03
2023-01-29T07:41:11.807Z,2.01
2023-01-29T07:43:57.541Z,2.12
2023-01-29T07:46:43.130Z,2.23
2023-01-29T07:49:28.794Z,2.07
2023-01-29T07:52:14.121Z,2.15
2023-01-29T07:54:59.640Z,2.13
2023-01-29T07:57:45.456Z,2.11
2023-01-29T08:00:31.776Z,2.17
2023-01-29T08:03:18.797Z,2.13
2023-01-29T08:06:04.646Z,2.21
2023-01-29T08:08:50.509Z,2.18
2023-01-29T08:11:36.019Z,2.18
2023-01-29T08:14:21.353Z,2.25
2023-01-29T08:17:06.950Z,2.31
2023-01-29T08:19:52.487Z,2.48
2023-01-29T08:22:38.305Z,2.56
2023-01-29T08:25:24.087Z,2.60
2023-01-29T08:28:11.651Z,2.73
2023-01-29T08:30:57.321Z,2.69
2023-01-29T08:33:43.122Z,2.71
2023-01-29T08:36:28.595Z,2.72
2023-01-29T08:39:14.016Z,2.70
2023-01-29T08:41:59.744Z,2.69
2023-01-29T08:44:45.525Z,2.81
2023-01-29T08:47:31.106Z,3.01
2023-01-29T08:50:18.237Z,2.92
2023-01-29T08:53:07.768Z,3.03
2023-01-29T08:55:55.131Z,2.98
2023-01-29T08:58:41.041Z,2.88
2023-01-29T09:01:26.359Z,3.00
2023-01-29T09:04:11.908Z,3.28
2023-01-29T09:06:57.556Z,3.62
2023-01-29T09:09:43.245Z,3.81
2023-01-29T09:12:28.786Z,3.61
2023-01-29T09:15:14.115Z,3.35
2023-01-29T09:18:03.820Z,3.37
2023-01-29T09:20:49.330Z,3.19
2023-01-29T09:23:35.017Z,3.61
2023-01-29T09:26:22.916Z,3.56
2023-01-29T09:29:10.733Z,3.74
2023-01-29T09:31:56.391Z,3.92
2023-01-29T09:34:42.235Z,3.93
2023-01-29T09:37:27.794Z,3.71
2023-01-29T09:40:34.879Z,3.60
2023-01-29T09:43:39.233Z,3.55
2023-01-29T09:46:39.743Z,3.65
2023-01-29T09:49:35.533Z,3.76
2023-01-29T09:52:27.721Z,3.90
2023-01-29T09:55:26.302Z,3.79
2023-01-29T09:58:21.481Z,3.78
2023-01-29T10:01:35.119Z,3.57
2023-01-29T10:04:29.297Z,3.69
2023-01-29T10:07:36.700Z,3.74
2023-01-29T10:10:50.975Z,3.76
2023-01-29T10:13:56.683Z,3.96
2023-01-29T10:17:03.934Z,4.20
2023-01-29T10:20:12.709Z,4.26
2023-01-29T10:23:12.939Z,4.03
2023-01-29T10:25:58.489Z,4.08
2023-01-29T10:28:48.302Z,4.12
2023-01-29T10:31:39.205Z,4.38
2023-01-29T10:34:36.631Z,4.66
2023-01-29T10:37:39.405Z,4.68
2023-01-29T10:40:38.513Z,4.64
2023-01-29T10:43:39.075Z,4.91
2023-01-29T10:46:42.552Z,4.61
2023-01-29T10:49:59.254Z,4.96
2023-01-29T10:53:15.572Z,5.51
2023-01-29T10:56:22.995Z,6.19
2023-01-29T10:59:46.332Z,5.38
2023-01-29T11:02:33.508Z,5.03
2023-01-29T11:05:32.956Z,5.36
2023-01-29T11:08:23.372Z,5.47
2023-01-29T11:11:14.024Z,5.35
2023-01-29T11:14:07.112Z,5.10
2023-01-29T11:16:53.084Z,5.05
2023-01-29T11:19:41.879Z,5.08
2023-01-29T11:22:29.803Z,5.00
2023-01-29T11:25:20.314Z,4.82
2023-01-29T11:28:06.108Z,4.83
2023-01-29T11:30:52.681Z,4.54
2023-01-29T11:33:38.334Z,4.86
2023-01-29T11:36:36.858Z,4.88
2023-01-29T11:39:24.869Z,4.58
2023-01-29T11:42:19.924Z,4.57
2023-01-29T11:45:24.802Z,4.37
2023-01-29T11:48:27.613Z,4.59
2023-01-29T11:51:23.818Z,4.33
2023-01-29T11:54:19.812Z,4.28
2023-01-29T11:57:05.596Z,4.45
2023-01-29T11:59:52.977Z,4.69
2023-01-29T12:02:48.740Z,4.45
2023-01-29T12:05:34.434Z,4.61
2023-01-29T12:08:22.781Z,4.56
2023-01-29T12:11:30.140Z,4.73
2023-01-29T12:14:28.146Z,4.74
2023-01-29T12:17:23.911Z,4.87
2023-01-29T12:20:17.995Z,4.67
2023-01-29T12:23:14.285Z,4.54
2023-01-29T12:26:07.797Z,4.62
2023-01-29T12:29:31.297Z,4.56
2023-01-29T12:32:34.329Z,4.77
2023-01-29T12:35:28.299Z,4.95
2023-01-29T12:38:22.278Z,5.03
2023-01-29T12:41:22.831Z,4.72
2023-01-29T12:44:19.328Z,4.84
2023-01-29T12:47:08.017Z,4.69
2023-01-29T12:50:01.682Z,4.96
2023-01-29T12:52:56.211Z,5.04
2023-01-29T12:55:47.637Z,5.02
2023-01-29T12:58:41.628Z,4.68
2023-01-29T13:01:38.574Z,4.64
2023-01-29T13:04:48.632Z,4.95
2023-01-29T13:07:40.031Z,4.89
2023-01-29T13:10:35.519Z,5.24
2023-01-29T13:13:30.532Z,5.19
2023-01-29T13:16:22.064Z,5.03
2023-01-29T13:19:31.481Z,4.83
2023-01-29T13:22:23.140Z,5.01
2023-01-29T13:25:16.710Z,5.05
2023-01-29T13:28:02.633Z,4.86
2023-01-29T13:31:10.714Z,5.08
2023-01-29T13:34:05.949Z,4.74
2023-01-29T13:36:54.895Z,4.81
2023-01-29T13:39:48.073Z,4.92
2023-01-29T13:42:38.686Z,4.70
2023-01-29T13:45:44.371Z,4.81
2023-01-29T13:48:36.917Z,4.79
2023-01-29T13:51:29.488Z,4.70
2023-01-29T13:54:21.097Z,4.89
2023-01-29T13:57:26.369Z,4.55
2023-01-29T14:00:20.664Z,4.41
2023-01-29T14:03:08.803Z,4.42
2023-01-29T14:05:54.191Z,4.82
2023-01-29T14:08:44.196Z,4.70
2023-01-29T14:11:35.819Z,4.64
2023-01-29T14:14:49.089Z,4.76
2023-01-29T14:17:37.358Z,4.48
2023-01-29T14:20:45.116Z,4.59
2023-01-29T14:23:52.446Z,4.56
2023-01-29T14:26:37.914Z,4.73
2023-01-29T14:29:35.412Z,4.89
2023-01-29T14:32:24.832Z,4.82
2023-01-29T14:35:20.793Z,4.48
2023-01-29T14:38:07.316Z,4.49
2023-01-29T14:41:04.557Z,4.38
2023-01-29T14:43:50.132Z,4.25
2023-01-29T14:46:35.661Z,4.02
2023-01-29T14:49:50.024Z,4.16
2023-01-29T14:52:43.997Z,4.10
2023-01-29T14:55:41.312Z,4.08
2023-01-29T14:58:31.053Z,4.05
2023-01-29T15:01:25.121Z,3.94
2023-01-29T15:04:18.113Z,3.81
2023-01-29T15:07:15.329Z,3.69
2023-01-29T15:10:22.296Z,3.74
2023-01-29T15:13:17.468Z,3.63
2023-01-29T15:16:11.326Z,3.58
2023-01-29T15:19:11.577Z,3.54
2023-01-29T15:22:19.143Z,3.52
2023-01-29T15:25:07.577Z,3.60
2023-01-29T15:27:54.704Z,3.42
2023-01-29T15:30:43.045Z,3.51
2023-01-29T15:33:28.969Z,3.41
2023-01-29T15:36:23.680Z,3.42
2023-01-29T15:39:11.711Z,3.58
2023-01-29T15:42:21.543Z,3.33
2023-01-29T15:45:27.371Z,3.35
2023-01-29T15:48:18.245Z,3.40
2023-01-29T15:51:07.883Z,3.44
2023-01-29T15:53:59.799Z,3.39
2023-01-29T15:56:49.577Z,3.28
2023-01-29T15:59:43.505Z,3.36
2023-01-29T16:02:47.076Z,3.27
2023-01-29T16:05:33.073Z,3.23
2023-01-29T16:08:21.782Z,3.37
2023-01-29T16:11:08.508Z,3.36
2023-01-29T16:13:54.545Z,3.35
2023-01-29T16:16:44.883Z,3.31
2023-01-29T16:19:32.336Z,3.37
2023-01-29T16:22:17.642Z,3.26
2023-01-29T16:25:11.593Z,3.25
2023-01-29T16:27:58.560Z,3.23
2023-01-29T16:30:44.090Z,3.28
2023-01-29T16:33:38.496Z,3.12
2023-01-29T16:36:27.658Z,3.21
2023-01-29T16:39:23.190Z,3.20
2023-01-29T16:42:19.660Z,3.21
2023-01-29T16:45:24.526Z,3.16
2023-01-29T16:48:27.613Z,3.12
2023-01-29T16:51:30.625Z,3.14
2023-01-29T16:54:18.166Z,3.11
2023-01-29T16:57:03.815Z,3.16
2023-01-29T16:59:52.907Z,3.18
2023-01-29T17:02:39.748Z,3.15
2023-01-29T17:05:31.471Z,3.16
2023-01-29T17:08:24.324Z,3.14
2023-01-29T17:11:13.617Z,3.09
2023-01-29T17:13:59.415Z,3.15
2023-01-29T17:16:56.740Z,3.16
2023-01-29T17:19:42.424Z,3.11
2023-01-29T17:22:27.761Z,3.06
2023-01-29T17:25:15.097Z,3.10
2023-01-29T17:28:02.639Z,3.09
2023-01-29T17:31:00.335Z,3.16
2023-01-29T17:33:50.823Z,3.13
2023-01-29T17:36:36.609Z,3.07
2023-01-29T17:39:23.952Z,2.90
2023-01-29T17:42:15.011Z,3.00
2023-01-29T17:45:00.724Z,2.90
2023-01-29T17:47:46.336Z,2.90
2023-01-29T17:50:34.253Z,2.88
2023-01-29T17:53:21.798Z,2.89
2023-01-29T17:56:11.865Z,2.72
2023-01-29T17:58:57.248Z,2.70
2023-01-29T18:01:43.120Z,2.71
2023-01-29T18:04:28.826Z,2.69
2023-01-29T18:07:14.224Z,2.60
2023-01-29T18:09:59.867Z,2.68
2023-01-29T18:12:45.680Z,2.59
2023-01-29T18:15:31.032Z,2.70
2023-01-29T18:18:19.553Z,2.60
2023-01-29T18:21:05.484Z,2.70
2023-01-29T18:23:51.283Z,2.66
2023-01-29T18:26:36.940Z,2.58
2023-01-29T18:29:22.342Z,2.62
2023-01-29T18:32:07.688Z,2.64
2023-01-29T18:34:53.087Z,2.72
2023-01-29T18:37:38.814Z,2.59
2023-01-29T18:40:24.751Z,2.62
2023-01-29T18:43:10.038Z,2.64
2023-01-29T18:45:59.882Z,2.59
2023-01-29T18:48:45.595Z,2.57
2023-01-29T18:51:31.167Z,2.59
2023-01-29T18:54:18.250Z,2.54
2023-01-29T18:57:13.326Z,2.60
2023-01-29T19:00:02.845Z,2.56
2023-01-29T19:02:48.351Z,2.59
2023-01-29T19:05:34.194Z,2.62
2023-01-29T19:08:19.918Z,2.50
2023-01-29T19:11:08.083Z,2.65
2023-01-29T19:13:54.722Z,2.66
2023-01-29T19:16:40.416Z,2.68
2023-01-29T19:19:25.914Z,2.59
2023-01-29T19:22:11.213Z,2.58
2023-01-29T19:24:57.041Z,2.59
2023-01-29T19:27:42.524Z,2.63
2023-01-29T19:30:28.060Z,2.55
2023-01-29T19:33:13.472Z,2.55
2023-01-29T19:35:59.761Z,2.57
2023-01-29T19:38:45.244Z,2.58
2023-01-29T19:41:30.808Z,2.49
2023-01-29T19:44:16.053Z,2.54
2023-01-29T19:47:02.284Z,2.60
2023-01-29T19:49:48.252Z,2.59
2023-01-29T19:52:48.857Z,2.66
2023-01-29T19:55:36.184Z,2.68
2023-01-29T19:58:21.542Z,2.74
2023-01-29T20:01:14.274Z,2.68
2023-01-29T20:03:59.944Z,2.68
2023-01-29T20:06:45.464Z,2.74
2023-01-29T20:09:31.044Z,2.68
2023-01-29T20:12:16.423Z,2.70
2023-01-29T20:15:01.829Z,2.72
2023-01-29T20:17:47.496Z,2.77
2023-01-29T20:20:32.995Z,2.83
2023-01-29T20:23:35.269Z,2.79
2023-01-29T20:26:22.279Z,2.85
2023-01-29T20:29:07.762Z,2.83
2023-01-29T20:31:53.518Z,2.89
2023-01-29T20:34:39.332Z,2.78
2023-01-29T20:37:25.047Z,2.83
2023-01-29T20:40:11.131Z,2.85
2023-01-29T20:42:56.428Z,2.84
2023-01-29T20:45:42.207Z,3.00
2023-01-29T20:48:27.888Z,2.84
2023-01-29T20:51:16.611Z,2.84
2023-01-29T20:54:02.090Z,2.80
2023-01-29T20:56:47.910Z,2.94
2023-01-29T20:59:33.601Z,2.87
2023-01-29T21:02:19.139Z,2.78
2023-01-29T21:05:06.462Z,2.89
2023-01-29T21:07:51.931Z,2.93
2023-01-29T21:10:37.686Z,2.86
2023-01-29T21:13:23.112Z,2.88
2023-01-29T21:16:10.834Z,2.88
2023-01-29T21:18:57.672Z,2.85
2023-01-29T21:21:43.101Z,2.82
2023-01-29T21:24:28.857Z,2.86
2023-01-29T21:27:14.386Z,2.90
2023-01-29T21:29:59.767Z,2.95
2023-01-29T21:32:45.172Z,2.92
2023-01-29T21:35:31.059Z,2.87
2023-01-29T21:38:16.468Z,2.90
2023-01-29T21:41:04.855Z,2.98
2023-01-29T21:43:50.221Z,2.94
2023-01-29T21:46:35.658Z,3.03
2023-01-29T21:49:21.233Z,2.96
2023-01-29T21:52:06.688Z,3.04
2023-01-29T21:54:51.947Z,3.01
2023-01-29T21:57:37.633Z,3.03
2023-01-29T22:00:22.989Z,3.04
2023-01-29T22:03:08.441Z,3.12
2023-01-29T22:05:53.928Z,3.13
2023-01-29T22:08:39.491Z,3.06
2023-01-29T22:11:24.825Z,3.04
2023-01-29T22:14:10.331Z,3.19
2023-01-29T22:16:55.869Z,3.18
2023-01-29T22:19:41.877Z,3.16
2023-01-29T22:22:27.550Z,3.21
2023-01-29T22:25:13.031Z,3.31
2023-01-29T22:27:58.584Z,3.24
2023-01-29T22:30:45.153Z,3.27
2023-01-29T22:33:31.566Z,3.16
2023-01-29T22:36:16.861Z,3.25
2023-01-29T22:39:02.303Z,3.37
2023-01-29T22:41:48.023Z,3.22
2023-01-29T22:44:33.304Z,3.32
2023-01-29T22:47:19.017Z,3.28
2023-01-29T22:50:08.110Z,3.22
2023-01-29T22:52:54.132Z,3.24
2023-01-29T22:55:39.387Z,3.13
2023-01-29T22:58:24.693Z,3.25
2023-01-29T23:01:10.408Z,3.17
2023-01-29T23:03:56.279Z,3.14
2023-01-29T23:06:41.867Z,3.16
2023-01-29T23:09:27.342Z,3.15
2023-01-29T23:12:13.684Z,3.11
2023-01-29T23:14:59.062Z,3.11
2023-01-29T23:17:45.217Z,3.20
2023-01-29T23:20:30.455Z,3.23
2023-01-29T23:23:16.492Z,3.28
2023-01-29T23:26:22.358Z,3.33
2023-01-29T23:29:08.146Z,3.24
2023-01-29T23:31:53.725Z,3.32
2023-01-29T23:34:39.534Z,3.39
2023-01-29T23:37:24.976Z,3.42
2023-01-29T23:40:10.819Z,3.38
2023-01-29T23:42:56.034Z,3.43
2023-01-29T23:45:41.434Z,3.43
2023-01-29T23:48:26.771Z,3.52
2023-01-29T23:51:12.455Z,3.52
2023-01-29T23:53:58.253Z,3.54
2023-01-29T23:56:44.977Z,3.58
2023-01-29T23:59:30.298Z,3.57
